createdAt,value
2019-04-28T00:00:48.645Z,30.9
2019-04-28T00:01:50.921Z,31.13
2019-04-28T00:02:53.189Z,30.98
2019-04-28T00:03:55.505Z,30.93
2019-04-28T00:04:57.734Z,30.75
2019-04-28T00:06:00.103Z,30.64
2019-04-28T00:07:02.390Z,31.04
2019-04-28T00:08:08.343Z,31.57
2019-04-28T00:09:06.969Z,31.11
2019-04-28T00:10:09.153Z,30.85
2019-04-28T00:11:11.388Z,30.9
2019-04-28T00:12:13.772Z,30.76
2019-04-28T00:13:15.947Z,30.87
2019-04-28T00:14:18.218Z,30.79
2019-04-28T00:15:20.647Z,30.8
2019-04-28T00:16:22.899Z,30.71
2019-04-28T00:17:25.269Z,31.81
2019-04-28T00:18:27.674Z,30.89
2019-04-28T00:19:29.735Z,30.77
2019-04-28T00:20:32.132Z,30.81
2019-04-28T00:21:34.253Z,30.72
2019-04-28T00:22:36.592Z,30.73
2019-04-28T00:23:38.837Z,30.71
2019-04-28T00:24:41.109Z,31.11
2019-04-28T00:25:43.390Z,30.78
2019-04-28T00:26:45.654Z,30.64
2019-04-28T00:27:47.937Z,30.72
2019-04-28T00:28:50.223Z,30.71
2019-04-28T00:29:52.459Z,30.63
2019-04-28T00:30:54.741Z,30.83
2019-04-28T00:31:57.097Z,30.6
2019-04-28T00:32:59.294Z,30.54
2019-04-28T00:34:01.824Z,30.45
2019-04-28T00:35:03.824Z,30.48
2019-04-28T00:36:06.141Z,31.2
2019-04-28T00:37:08.382Z,30.56
2019-04-28T00:38:10.742Z,30.52
2019-04-28T00:39:12.951Z,30.48
2019-04-28T00:40:15.303Z,30.66
2019-04-28T00:41:17.475Z,30.43
2019-04-28T00:42:19.751Z,30.36
2019-04-28T00:43:22.096Z,30.41
2019-04-28T00:44:24.312Z,30.69
2019-04-28T00:45:26.609Z,30.37
2019-04-28T00:46:28.842Z,30.83
2019-04-28T00:47:31.117Z,30.44
2019-04-28T00:48:33.379Z,31.07
2019-04-28T00:49:35.799Z,30.45
2019-04-28T00:50:37.950Z,30.2
2019-04-28T00:51:40.206Z,30.24
2019-04-28T00:52:42.487Z,30.28
2019-04-28T00:53:44.769Z,30.28
2019-04-28T00:54:47.035Z,30.32
2019-04-28T00:55:50.036Z,30.37
2019-04-28T00:56:52.467Z,30.28
2019-04-28T00:57:53.884Z,30.29
2019-04-28T00:58:56.115Z,30.18
2019-04-28T00:59:58.417Z,30.25
2019-04-28T01:01:00.732Z,30.43
2019-04-28T01:02:04.847Z,30.3
2019-04-28T01:04:07.478Z,30.34
2019-04-28T01:06:12.059Z,30.28
2019-04-28T01:07:14.343Z,30.28
2019-04-28T01:08:16.698Z,30.28
2019-04-28T01:09:18.943Z,30.34
2019-04-28T01:10:21.158Z,30.33
2019-04-28T01:11:23.452Z,30.28
2019-04-28T01:12:25.704Z,30.25
2019-04-28T01:13:27.995Z,30.25
2019-04-28T01:14:30.377Z,30.26
2019-04-28T01:15:32.511Z,30.2
2019-04-28T01:16:34.765Z,30.22
2019-04-28T01:17:37.062Z,30.24
2019-04-28T01:18:39.358Z,30.23
2019-04-28T01:19:41.652Z,30.21
2019-04-28T01:20:43.874Z,30.31
2019-04-28T01:21:46.147Z,30.33
2019-04-28T01:22:49.512Z,30.24
2019-04-28T01:23:50.696Z,30.28
2019-04-28T01:24:52.966Z,30.33
2019-04-28T01:25:58.067Z,30.26
2019-04-28T01:26:57.575Z,30.09
2019-04-28T01:28:03.868Z,30.01
2019-04-28T01:29:02.075Z,30.18
2019-04-28T01:30:04.738Z,30.13
2019-04-28T01:32:09.002Z,30.12
2019-04-28T01:33:11.326Z,30.14
2019-04-28T01:34:13.453Z,30.13
2019-04-28T01:35:15.727Z,30.14
2019-04-28T01:36:18.031Z,30.14
2019-04-28T01:37:20.343Z,30.08
2019-04-28T01:38:22.616Z,30.05
2019-04-28T01:39:24.823Z,30.09
2019-04-28T01:40:27.095Z,30.19
2019-04-28T01:41:29.387Z,30.13
2019-04-28T01:42:31.642Z,29.95
2019-04-28T01:43:33.923Z,29.97
2019-04-28T01:44:36.177Z,30.11
2019-04-28T01:45:38.495Z,29.94
2019-04-28T01:46:40.826Z,29.98
2019-04-28T01:47:43.006Z,29.93
2019-04-28T01:48:45.276Z,30.11
2019-04-28T01:49:47.571Z,30.1
2019-04-28T01:50:49.863Z,29.94
2019-04-28T01:51:52.152Z,30.06
2019-04-28T01:52:54.397Z,30.03
2019-04-28T01:53:56.717Z,29.91
2019-04-28T01:54:59.056Z,29.94
2019-04-28T01:56:01.327Z,29.95
2019-04-28T01:57:03.460Z,29.95
2019-04-28T01:58:05.778Z,30.02
2019-04-28T01:59:08.019Z,30.01
2019-04-28T02:00:10.353Z,30.02
2019-04-28T02:01:12.575Z,30.09
2019-04-28T02:02:14.853Z,29.87
2019-04-28T02:03:17.148Z,29.89
2019-04-28T02:04:19.389Z,30.06
2019-04-28T02:05:21.700Z,30.08
2019-04-28T02:06:23.935Z,29.95
2019-04-28T02:07:26.275Z,30
2019-04-28T02:08:28.493Z,30.1
2019-04-28T02:09:30.778Z,30.04
2019-04-28T02:10:33.019Z,30.05
2019-04-28T02:11:35.355Z,29.98
2019-04-28T02:12:37.623Z,29.95
2019-04-28T02:13:39.892Z,29.97
2019-04-28T02:14:42.240Z,29.98
2019-04-28T02:15:44.391Z,29.96
2019-04-28T02:16:46.666Z,29.96
2019-04-28T02:17:48.948Z,29.85
2019-04-28T02:18:51.432Z,29.93
2019-04-28T02:19:53.495Z,29.89
2019-04-28T02:21:58.089Z,29.91
2019-04-28T02:23:00.349Z,30
2019-04-28T02:24:02.625Z,29.92
2019-04-28T02:25:04.882Z,30.05
2019-04-28T02:26:07.302Z,29.91
2019-04-28T02:27:09.482Z,29.89
2019-04-28T02:28:11.704Z,30
2019-04-28T02:29:13.947Z,29.94
2019-04-28T02:30:16.272Z,29.93
2019-04-28T02:31:18.603Z,29.9
2019-04-28T02:32:21.076Z,29.95
2019-04-28T02:33:23.122Z,29.88
2019-04-28T02:34:25.333Z,29.96
2019-04-28T02:35:27.689Z,29.96
2019-04-28T02:36:29.901Z,29.96
2019-04-28T02:37:32.145Z,30.03
2019-04-28T02:38:34.459Z,30.03
2019-04-28T02:39:36.729Z,29.79
2019-04-28T02:40:39.094Z,29.82
2019-04-28T02:41:41.309Z,29.84
2019-04-28T02:42:43.528Z,29.81
2019-04-28T02:43:45.882Z,29.85
2019-04-28T02:44:48.095Z,29.85
2019-04-28T02:45:50.398Z,29.91
2019-04-28T02:46:52.611Z,29.95
2019-04-28T02:47:54.879Z,29.81
2019-04-28T02:48:57.208Z,29.76
2019-04-28T02:49:59.447Z,29.86
2019-04-28T02:51:01.737Z,29.91
2019-04-28T02:52:04.073Z,29.83
2019-04-28T02:53:06.375Z,30.01
2019-04-28T02:54:08.535Z,29.91
2019-04-28T02:55:10.794Z,29.7
2019-04-28T02:56:13.090Z,29.88
2019-04-28T02:57:15.360Z,29.94
2019-04-28T02:58:17.636Z,29.77
2019-04-28T02:59:19.888Z,29.82
2019-04-28T03:00:22.185Z,29.76
2019-04-28T03:01:24.443Z,29.72
2019-04-28T03:02:26.710Z,29.64
2019-04-28T03:03:29.091Z,29.73
2019-04-28T03:04:31.280Z,29.69
2019-04-28T03:05:33.674Z,29.74
2019-04-28T03:06:35.981Z,29.75
2019-04-28T03:07:38.105Z,29.74
2019-04-28T03:08:40.471Z,29.7
2019-04-28T03:09:42.732Z,29.81
2019-04-28T03:10:44.916Z,29.7
2019-04-28T03:11:47.218Z,29.82
2019-04-28T03:12:49.485Z,29.78
2019-04-28T03:13:51.740Z,29.74
2019-04-28T03:14:54.046Z,29.85
2019-04-28T03:15:56.329Z,29.74
2019-04-28T03:16:58.566Z,29.68
2019-04-28T03:18:00.888Z,29.71
2019-04-28T03:19:03.178Z,29.76
2019-04-28T03:20:05.442Z,29.72
2019-04-28T03:21:07.636Z,29.83
2019-04-28T03:22:10.020Z,29.76
2019-04-28T03:23:12.185Z,29.88
2019-04-28T03:24:14.492Z,29.65
2019-04-28T03:25:17.849Z,29.76
2019-04-28T03:26:19.023Z,29.75
2019-04-28T03:27:21.422Z,29.76
2019-04-28T03:28:23.553Z,29.9
2019-04-28T03:29:26.137Z,29.85
2019-04-28T03:30:28.105Z,29.86
2019-04-28T03:31:34.593Z,29.8
2019-04-28T03:32:32.659Z,29.87
2019-04-28T03:33:34.960Z,29.81
2019-04-28T03:34:37.274Z,29.93
2019-04-28T03:35:39.598Z,29.84
2019-04-28T03:36:41.811Z,29.95
2019-04-28T03:37:44.021Z,29.84
2019-04-28T03:38:46.305Z,29.83
2019-04-28T03:39:48.593Z,29.82
2019-04-28T03:40:50.866Z,29.78
2019-04-28T03:41:53.123Z,29.73
2019-04-28T03:42:55.430Z,29.76
2019-04-28T03:43:57.669Z,29.8
2019-04-28T03:44:59.965Z,29.78
2019-04-28T03:46:02.236Z,29.81
2019-04-28T03:47:04.495Z,29.79
2019-04-28T03:48:06.961Z,29.82
2019-04-28T03:49:09.085Z,29.83
2019-04-28T03:50:11.318Z,29.82
2019-04-28T03:51:13.587Z,29.82
2019-04-28T03:52:15.864Z,29.82
2019-04-28T03:53:18.150Z,29.76
2019-04-28T03:54:20.520Z,29.74
2019-04-28T03:55:23.009Z,29.76
2019-04-28T03:56:24.973Z,29.85
2019-04-28T03:57:27.232Z,29.77
2019-04-28T03:58:29.505Z,29.78
2019-04-28T03:59:31.786Z,29.8
2019-04-28T04:00:34.046Z,29.82
2019-04-28T04:01:36.411Z,29.76
2019-04-28T04:02:38.655Z,29.81
2019-04-28T04:03:40.906Z,29.8
2019-04-28T04:04:43.129Z,29.81
2019-04-28T04:05:45.438Z,29.83
2019-04-28T04:06:47.688Z,29.84
2019-04-28T04:07:50.020Z,29.82
2019-04-28T04:08:52.285Z,29.77
2019-04-28T04:09:54.571Z,29.88
2019-04-28T04:10:56.929Z,29.83
2019-04-28T04:11:59.056Z,29.87
2019-04-28T04:13:01.358Z,29.81
2019-04-28T04:14:03.625Z,29.83
2019-04-28T04:15:05.923Z,29.84
2019-04-28T04:16:08.203Z,29.85
2019-04-28T04:17:10.442Z,29.93
2019-04-28T04:18:12.711Z,29.89
2019-04-28T04:19:14.973Z,29.88
2019-04-28T04:20:19.366Z,29.9
2019-04-28T04:21:19.519Z,29.88
2019-04-28T04:22:21.788Z,29.89
2019-04-28T04:23:24.054Z,29.96
2019-04-28T04:24:26.378Z,29.88
2019-04-28T04:25:28.642Z,29.93
2019-04-28T04:26:31.001Z,30.04
2019-04-28T04:27:33.214Z,29.94
2019-04-28T04:28:35.528Z,30.04
2019-04-28T04:29:37.706Z,29.94
2019-04-28T04:30:40.000Z,29.99
2019-04-28T04:31:42.243Z,30.02
2019-04-28T04:32:44.573Z,29.99
2019-04-28T04:33:46.897Z,30.02
2019-04-28T04:34:49.062Z,30.13
2019-04-28T04:35:51.472Z,30.02
2019-04-28T04:36:53.632Z,30.1
2019-04-28T04:37:55.896Z,30.12
2019-04-28T04:38:58.176Z,30.15
2019-04-28T04:40:00.463Z,30.09
2019-04-28T04:41:02.895Z,30.09
2019-04-28T04:42:05.011Z,30.08
2019-04-28T04:43:07.269Z,30.07
2019-04-28T04:44:09.567Z,30.12
2019-04-28T04:45:13.548Z,30.16
2019-04-28T04:46:14.106Z,30.04
2019-04-28T04:47:16.357Z,30.15
2019-04-28T04:48:18.636Z,30.13
2019-04-28T04:49:21.127Z,30.06
2019-04-28T04:50:23.267Z,30.19
2019-04-28T04:51:25.457Z,30.09
2019-04-28T04:52:32.008Z,30.17
2019-04-28T04:53:30.002Z,30.24
2019-04-28T04:54:32.274Z,30.26
2019-04-28T04:55:34.577Z,30.25
2019-04-28T04:56:36.847Z,30.27
2019-04-28T04:57:39.182Z,30.27
2019-04-28T04:58:41.364Z,30.2
2019-04-28T04:59:43.655Z,30.2
2019-04-28T05:00:45.932Z,30.24
2019-04-28T05:01:48.215Z,30.27
2019-04-28T05:02:50.761Z,30.35
2019-04-28T05:03:52.728Z,30.24
2019-04-28T05:04:55.008Z,30.28
2019-04-28T05:05:57.374Z,30.16
2019-04-28T05:06:59.579Z,30.17
2019-04-28T05:08:01.889Z,30.23
2019-04-28T05:09:04.117Z,30.23
2019-04-28T05:10:06.455Z,30.24
2019-04-28T05:11:08.696Z,30.17
2019-04-28T05:12:10.943Z,30.27
2019-04-28T05:13:13.203Z,30.27
2019-04-28T05:14:15.479Z,30.3
2019-04-28T05:15:17.768Z,30.29
2019-04-28T05:16:20.033Z,30.32
2019-04-28T05:17:22.343Z,30.26
2019-04-28T05:18:24.609Z,30.28
2019-04-28T05:19:26.852Z,30.3
2019-04-28T05:20:29.151Z,30.33
2019-04-28T05:21:31.403Z,30.3
2019-04-28T05:22:33.715Z,30.32
2019-04-28T05:23:35.983Z,30.42
2019-04-28T05:24:38.234Z,30.43
2019-04-28T05:25:40.478Z,30.4
2019-04-28T05:26:42.804Z,30.32
2019-04-28T05:27:45.067Z,30.31
2019-04-28T05:28:47.568Z,30.46
2019-04-28T05:29:49.593Z,30.39
2019-04-28T05:30:54.565Z,30.45
2019-04-28T05:31:54.208Z,30.39
2019-04-28T05:32:56.494Z,30.33
2019-04-28T05:33:58.730Z,30.4
2019-04-28T05:35:00.981Z,30.42
2019-04-28T05:36:03.260Z,30.43
2019-04-28T05:37:05.895Z,30.49
2019-04-28T05:38:07.871Z,30.51
2019-04-28T05:39:10.069Z,30.55
2019-04-28T05:40:12.343Z,30.48
2019-04-28T05:41:14.687Z,30.46
2019-04-28T05:42:16.877Z,30.56
2019-04-28T05:43:22.911Z,30.6
2019-04-28T05:44:21.484Z,30.52
2019-04-28T05:45:23.709Z,30.53
2019-04-28T05:46:25.979Z,30.55
2019-04-28T05:47:28.256Z,30.54
2019-04-28T05:48:30.524Z,30.53
2019-04-28T05:49:32.790Z,30.53
2019-04-28T05:50:35.093Z,30.59
2019-04-28T05:51:41.058Z,30.66
2019-04-28T05:52:39.681Z,30.62
2019-04-28T05:53:41.906Z,30.72
2019-04-28T05:54:44.161Z,30.76
2019-04-28T05:55:46.455Z,30.65
2019-04-28T05:56:48.717Z,30.78
2019-04-28T05:57:51.194Z,30.67
2019-04-28T05:58:53.255Z,30.71
2019-04-28T05:59:55.533Z,30.68
2019-04-28T06:00:57.893Z,30.62
2019-04-28T06:02:00.125Z,30.65
2019-04-28T06:03:02.366Z,30.51
2019-04-28T06:04:04.621Z,30.59
2019-04-28T06:05:07.089Z,30.5
2019-04-28T06:06:09.164Z,30.54
2019-04-28T06:07:11.436Z,30.57
2019-04-28T06:08:13.706Z,30.58
2019-04-28T06:09:16.007Z,30.5
2019-04-28T06:10:18.321Z,30.59
2019-04-28T06:11:20.541Z,30.53
2019-04-28T06:12:22.832Z,30.5
2019-04-28T06:13:25.222Z,30.49
2019-04-28T06:14:27.401Z,30.49
2019-04-28T06:15:29.637Z,30.43
2019-04-28T06:16:32.042Z,30.49
2019-04-28T06:17:34.213Z,30.5
2019-04-28T06:18:36.486Z,30.5
2019-04-28T06:19:38.732Z,30.53
2019-04-28T06:20:40.994Z,30.54
2019-04-28T06:21:43.705Z,30.53
2019-04-28T06:22:45.560Z,30.64
2019-04-28T06:23:47.823Z,30.51
2019-04-28T06:25:57.821Z,30.53
2019-04-28T06:26:54.652Z,30.49
2019-04-28T06:27:56.923Z,30.54
2019-04-28T06:28:59.199Z,30.5
2019-04-28T06:30:01.469Z,30.37
2019-04-28T06:31:03.760Z,30.31
2019-04-28T06:32:06.160Z,30.38
2019-04-28T06:33:08.444Z,30.49
2019-04-28T06:34:10.693Z,30.51
2019-04-28T06:35:12.914Z,30.47
2019-04-28T06:36:15.145Z,30.41
2019-04-28T06:37:17.398Z,30.39
2019-04-28T06:38:19.821Z,30.35
2019-04-28T06:39:21.946Z,30.41
2019-04-28T06:40:24.236Z,30.31
2019-04-28T06:41:26.511Z,30.3
2019-04-28T06:42:28.981Z,30.25
2019-04-28T06:43:31.031Z,30.42
2019-04-28T06:44:33.317Z,30.2
2019-04-28T06:45:35.574Z,30.23
2019-04-28T06:46:37.859Z,30.32
2019-04-28T06:47:40.214Z,30.32
2019-04-28T06:48:42.406Z,30.34
2019-04-28T06:49:44.798Z,30.34
2019-04-28T06:50:47.036Z,30.29
2019-04-28T06:51:49.324Z,30.35
2019-04-28T06:52:51.678Z,30.29
2019-04-28T06:53:53.856Z,30.32
2019-04-28T06:55:58.876Z,30.31
2019-04-28T06:57:00.596Z,30.41
2019-04-28T06:58:02.873Z,30.42
2019-04-28T06:59:05.214Z,30.4
2019-04-28T07:00:07.453Z,30.44
2019-04-28T07:01:09.690Z,30.54
2019-04-28T07:02:13.133Z,30.61
2019-04-28T07:03:14.242Z,30.59
2019-04-28T07:04:16.494Z,30.58
2019-04-28T07:05:18.815Z,30.55
2019-04-28T07:06:21.084Z,30.51
2019-04-28T07:07:23.340Z,30.49
2019-04-28T07:08:25.610Z,30.58
2019-04-28T07:09:27.982Z,30.46
2019-04-28T07:10:30.165Z,30.45
2019-04-28T07:11:32.530Z,30.49
2019-04-28T07:12:34.702Z,30.4
2019-04-28T07:13:36.984Z,30.32
2019-04-28T07:14:39.418Z,30.36
2019-04-28T07:15:41.537Z,30.35
2019-04-28T07:16:43.836Z,30.39
2019-04-28T07:17:46.131Z,30.34
2019-04-28T07:18:48.351Z,30.36
2019-04-28T07:19:52.108Z,30.33
2019-04-28T07:20:53.084Z,30.34
2019-04-28T07:21:55.163Z,30.37
2019-04-28T07:22:57.507Z,30.36
2019-04-28T07:23:59.709Z,30.37
2019-04-28T07:25:01.992Z,30.42
2019-04-28T07:26:08.889Z,30.41
2019-04-28T07:27:06.601Z,30.44
2019-04-28T07:28:08.845Z,30.45
2019-04-28T07:29:11.113Z,30.49
2019-04-28T07:30:13.349Z,30.42
2019-04-28T07:31:15.619Z,30.36
2019-04-28T07:32:17.934Z,30.38
2019-04-28T07:33:20.223Z,30.5
2019-04-28T07:34:22.758Z,30.5
2019-04-28T07:35:24.821Z,30.55
2019-04-28T07:36:26.986Z,30.51
2019-04-28T07:37:29.274Z,30.53
2019-04-28T07:38:31.573Z,30.54
2019-04-28T07:39:33.827Z,30.53
2019-04-28T07:40:36.194Z,30.51
2019-04-28T07:41:38.366Z,30.5
2019-04-28T07:42:40.642Z,30.46
2019-04-28T07:43:42.947Z,30.5
2019-04-28T07:44:45.194Z,30.57
2019-04-28T07:45:47.489Z,30.58
2019-04-28T07:46:49.748Z,30.63
2019-04-28T07:47:52.206Z,30.61
2019-04-28T07:48:54.296Z,30.64
2019-04-28T07:49:56.605Z,30.63
2019-04-28T07:50:58.829Z,30.67
2019-04-28T07:52:01.110Z,30.56
2019-04-28T07:53:03.421Z,30.64
2019-04-28T07:54:06.472Z,30.61
2019-04-28T07:55:08.037Z,30.54
2019-04-28T07:56:10.211Z,30.58
2019-04-28T07:57:12.582Z,30.56
2019-04-28T07:58:14.827Z,30.74
2019-04-28T07:59:17.041Z,30.62
2019-04-28T08:00:19.326Z,30.5
2019-04-28T08:01:21.623Z,30.45
2019-04-28T08:02:23.842Z,30.42
2019-04-28T08:03:26.323Z,30.41
2019-04-28T08:04:28.483Z,30.34
2019-04-28T08:05:30.659Z,30.71
2019-04-28T08:06:32.927Z,32.87
2019-04-28T08:07:35.293Z,34.7
2019-04-28T08:08:37.487Z,34.16
2019-04-28T08:09:39.833Z,34.64
2019-04-28T08:10:42.076Z,34.99
2019-04-28T08:11:44.411Z,34.53
2019-04-28T08:12:46.613Z,33.24
2019-04-28T08:13:48.877Z,32.32
2019-04-28T08:14:51.140Z,31.9
2019-04-28T08:15:53.511Z,31.72
2019-04-28T08:16:55.701Z,31.78
2019-04-28T08:17:58.546Z,31.7
2019-04-28T08:19:00.248Z,31.57
2019-04-28T08:20:02.518Z,31.63
2019-04-28T08:21:04.777Z,31.54
2019-04-28T08:22:07.063Z,31.59
2019-04-28T08:23:09.326Z,31.62
2019-04-28T08:24:11.697Z,31.62
2019-04-28T08:25:13.887Z,31.7
2019-04-28T08:26:16.201Z,31.66
2019-04-28T08:27:18.591Z,31.53
2019-04-28T08:28:20.702Z,31.46
2019-04-28T08:29:22.990Z,31.26
2019-04-28T08:30:25.277Z,30.97
2019-04-28T08:31:27.566Z,30.8
2019-04-28T08:32:29.818Z,30.78
2019-04-28T08:33:32.086Z,30.76
2019-04-28T08:34:34.356Z,30.64
2019-04-28T08:35:36.731Z,30.63
2019-04-28T08:36:38.954Z,30.72
2019-04-28T08:37:41.172Z,30.67
2019-04-28T08:38:43.462Z,30.64
2019-04-28T08:39:45.713Z,30.61
2019-04-28T08:40:47.997Z,30.66
2019-04-28T08:41:50.436Z,30.61
2019-04-28T08:42:52.618Z,30.56
2019-04-28T08:43:54.860Z,30.57
2019-04-28T08:44:57.142Z,30.56
2019-04-28T08:45:59.363Z,30.57
2019-04-28T08:47:01.658Z,30.48
2019-04-28T08:48:03.937Z,30.49
2019-04-28T08:49:12.283Z,30.5
2019-04-28T08:50:08.456Z,30.55
2019-04-28T08:51:10.759Z,30.47
2019-04-28T08:52:13.008Z,30.44
2019-04-28T08:53:15.292Z,30.39
2019-04-28T08:54:17.577Z,30.39
2019-04-28T08:55:19.983Z,30.41
2019-04-28T08:56:22.189Z,30.39
2019-04-28T08:57:24.514Z,30.39
2019-04-28T08:58:26.700Z,30.39
2019-04-28T08:59:28.948Z,30.35
2019-04-28T09:00:31.303Z,30.4
2019-04-28T09:01:33.507Z,30.36
2019-04-28T09:02:35.743Z,30.33
2019-04-28T09:03:38.043Z,30.3
2019-04-28T09:04:40.434Z,30.32
2019-04-28T09:05:42.711Z,30.3
2019-04-28T09:06:45.021Z,30.3
2019-04-28T09:07:47.246Z,30.41
2019-04-28T09:08:49.527Z,30.34
2019-04-28T09:09:51.809Z,30.26
2019-04-28T09:10:54.092Z,30.25
2019-04-28T09:11:56.665Z,30.2
2019-04-28T09:12:58.625Z,30.18
2019-04-28T09:14:00.896Z,30.19
2019-04-28T09:15:03.210Z,30.24
2019-04-28T09:16:05.529Z,30.16
2019-04-28T09:17:07.704Z,30.11
2019-04-28T09:18:10.035Z,30.05
2019-04-28T09:19:12.259Z,30
2019-04-28T09:20:14.532Z,30.04
2019-04-28T09:21:16.873Z,29.98
2019-04-28T09:22:19.165Z,30.13
2019-04-28T09:23:21.395Z,30.11
2019-04-28T09:24:23.691Z,30.03
2019-04-28T09:25:26.031Z,29.98
2019-04-28T09:26:28.170Z,30.02
2019-04-28T09:27:30.458Z,30.01
2019-04-28T09:28:32.718Z,29.94
2019-04-28T09:29:35.055Z,29.9
2019-04-28T09:30:39.962Z,29.84
2019-04-28T09:31:39.570Z,29.83
2019-04-28T09:32:41.812Z,29.87
2019-04-28T09:33:44.089Z,29.8
2019-04-28T09:34:47.259Z,29.69
2019-04-28T09:35:48.631Z,29.77
2019-04-28T09:37:53.165Z,29.74
2019-04-28T09:38:55.479Z,29.65
2019-04-28T09:39:57.717Z,29.67
2019-04-28T09:41:00.033Z,29.71
2019-04-28T09:42:02.263Z,29.71
2019-04-28T09:43:04.525Z,29.62
2019-04-28T09:44:06.975Z,29.7
2019-04-28T09:45:09.437Z,30.21
2019-04-28T09:46:11.362Z,30.25
2019-04-28T09:47:13.694Z,30.32
2019-04-28T09:48:15.945Z,30.22
2019-04-28T09:49:18.249Z,30.29
2019-04-28T09:50:20.560Z,30.04
2019-04-28T09:51:22.816Z,30.25
2019-04-28T09:52:25.116Z,30.17
2019-04-28T09:53:27.286Z,30.05
2019-04-28T09:54:29.979Z,29.92
2019-04-28T09:55:31.821Z,29.8
2019-04-28T09:56:34.112Z,29.87
2019-04-28T09:57:36.405Z,30.08
2019-04-28T09:58:38.657Z,29.95
2019-04-28T09:59:41.092Z,29.99
2019-04-28T10:00:43.184Z,30.07
2019-04-28T10:01:45.463Z,30.2
2019-04-28T10:02:47.751Z,29.89
2019-04-28T10:03:49.989Z,29.86
2019-04-28T10:04:56.375Z,29.64
2019-04-28T10:05:54.610Z,29.72
2019-04-28T10:06:56.837Z,29.77
2019-04-28T10:09:01.370Z,29.82
2019-04-28T10:10:03.636Z,29.73
2019-04-28T10:11:05.914Z,29.72
2019-04-28T10:12:08.182Z,29.79
2019-04-28T10:13:10.519Z,29.87
2019-04-28T10:14:12.759Z,29.81
2019-04-28T10:15:15.086Z,29.69
2019-04-28T10:16:17.270Z,29.66
2019-04-28T10:17:19.554Z,29.77
2019-04-28T10:18:24.439Z,29.87
2019-04-28T10:19:24.183Z,29.82
2019-04-28T10:20:26.409Z,29.77
2019-04-28T10:21:28.707Z,29.67
2019-04-28T10:22:31.027Z,29.65
2019-04-28T10:23:33.482Z,29.7
2019-04-28T10:24:35.496Z,29.92
2019-04-28T10:25:37.773Z,29.73
2019-04-28T10:26:39.988Z,29.54
2019-04-28T10:27:42.272Z,29.45
2019-04-28T10:28:44.550Z,29.5
2019-04-28T10:29:46.841Z,29.46
2019-04-28T10:30:49.086Z,29.29
2019-04-28T10:31:51.392Z,29.36
2019-04-28T10:32:53.636Z,29.5
2019-04-28T10:33:55.888Z,29.41
2019-04-28T10:34:58.159Z,29.4
2019-04-28T10:36:00.452Z,29.29
2019-04-28T10:37:02.720Z,29.2
2019-04-28T10:38:05.026Z,29.25
2019-04-28T10:39:07.312Z,29.3
2019-04-28T10:40:09.613Z,29.44
2019-04-28T10:41:11.892Z,29.43
2019-04-28T10:42:14.182Z,29.43
2019-04-28T10:43:16.401Z,29.41
2019-04-28T10:44:18.621Z,29.23
2019-04-28T10:45:20.896Z,29.16
2019-04-28T10:46:23.190Z,29.1
2019-04-28T10:47:25.455Z,29.22
2019-04-28T10:48:27.702Z,29.08
2019-04-28T10:49:29.980Z,29.17
2019-04-28T10:50:35.730Z,29.24
2019-04-28T10:51:34.617Z,29.17
2019-04-28T10:52:37.050Z,29.12
2019-04-28T10:53:39.223Z,29.15
2019-04-28T10:54:41.447Z,29.15
2019-04-28T10:55:44.723Z,29.05
2019-04-28T10:56:45.972Z,29.09
2019-04-28T10:57:48.243Z,29
2019-04-28T10:58:50.667Z,29
2019-04-28T10:59:52.790Z,29.07
2019-04-28T11:00:55.152Z,29
2019-04-28T11:01:57.435Z,29.05
2019-04-28T11:02:59.690Z,29.05
2019-04-28T11:04:01.893Z,28.99
2019-04-28T11:05:04.210Z,28.99
2019-04-28T11:06:06.520Z,28.93
2019-04-28T11:07:08.730Z,28.98
2019-04-28T11:08:10.961Z,28.91
2019-04-28T11:09:13.421Z,28.85
2019-04-28T11:10:15.550Z,28.88
2019-04-28T11:11:17.791Z,28.88
2019-04-28T11:12:20.159Z,28.89
2019-04-28T11:13:22.406Z,28.8
2019-04-28T11:14:24.679Z,28.78
2019-04-28T11:15:26.964Z,28.73
2019-04-28T11:16:29.232Z,28.8
2019-04-28T11:17:31.512Z,28.99
2019-04-28T11:18:33.892Z,28.87
2019-04-28T11:19:36.136Z,28.63
2019-04-28T11:20:38.340Z,28.67
2019-04-28T11:21:40.663Z,28.61
2019-04-28T11:22:43.029Z,28.55
2019-04-28T11:23:45.279Z,28.56
2019-04-28T11:24:47.490Z,28.65
2019-04-28T11:26:51.964Z,28.54
2019-04-28T11:27:54.403Z,28.72
2019-04-28T11:28:56.497Z,28.84
2019-04-28T11:29:58.772Z,31.24
2019-04-28T11:31:01.046Z,29.97
2019-04-28T11:32:03.338Z,29.23
2019-04-28T11:33:05.723Z,28.88
2019-04-28T11:34:07.895Z,28.79
2019-04-28T11:35:10.172Z,28.42
2019-04-28T11:36:12.447Z,28.07
2019-04-28T11:37:14.676Z,27.88
2019-04-28T11:39:19.226Z,27.64
2019-04-28T11:40:21.662Z,27.62
2019-04-28T11:41:23.793Z,27.63
2019-04-28T11:42:26.053Z,27.57
2019-04-28T11:43:28.629Z,27.44
2019-04-28T11:44:30.641Z,27.38
2019-04-28T11:45:32.863Z,27.42
2019-04-28T11:46:35.190Z,27.38
2019-04-28T11:47:37.517Z,27.21
2019-04-28T11:48:39.757Z,27.5
2019-04-28T11:49:42.037Z,27.25
2019-04-28T11:50:44.313Z,27.16
2019-04-28T11:51:46.514Z,27.44
2019-04-28T11:52:48.795Z,27.33
2019-04-28T11:53:51.341Z,27.35
2019-04-28T11:54:53.353Z,27.28
2019-04-28T11:55:58.061Z,27.31
2019-04-28T11:56:57.863Z,27.39
2019-04-28T11:58:00.149Z,27.26
2019-04-28T11:59:04.556Z,28.97
2019-04-28T12:00:04.697Z,27.11
2019-04-28T12:01:06.988Z,26.93
2019-04-28T12:02:09.302Z,26.87
2019-04-28T12:03:11.860Z,27.01
2019-04-28T12:04:13.918Z,26.8
2019-04-28T12:05:16.055Z,26.97
2019-04-28T12:06:18.400Z,26.94
2019-04-28T12:07:20.875Z,28.04
2019-04-28T12:08:23.005Z,28.67
2019-04-28T12:09:25.396Z,28.4
2019-04-28T12:10:27.634Z,28.52
2019-04-28T12:11:29.817Z,29.02
2019-04-28T12:12:32.236Z,28.67
2019-04-28T12:13:34.489Z,28.39
2019-04-28T12:14:36.733Z,28.58
2019-04-28T12:15:38.990Z,28.13
2019-04-28T12:16:41.268Z,28.08
2019-04-28T12:17:43.759Z,28.59
2019-04-28T12:18:45.930Z,28.35
2019-04-28T12:19:48.106Z,28.1
2019-04-28T12:20:50.438Z,27.8
2019-04-28T12:21:52.862Z,27.49
2019-04-28T12:22:55.088Z,27.38
2019-04-28T12:23:57.182Z,27.26
2019-04-28T12:24:59.438Z,27.16
2019-04-28T12:26:01.732Z,27.07
2019-04-28T12:27:03.979Z,27.23
2019-04-28T12:28:06.328Z,27.27
2019-04-28T12:29:08.542Z,27.31
2019-04-28T12:30:10.812Z,27.4
2019-04-28T12:31:13.111Z,27.43
2019-04-28T12:32:15.504Z,27.39
2019-04-28T12:33:17.625Z,27.51
2019-04-28T12:34:19.892Z,27.48
2019-04-28T12:35:22.198Z,27.38
2019-04-28T12:36:24.485Z,27.48
2019-04-28T12:37:26.829Z,27.57
2019-04-28T12:38:29.065Z,27.56
2019-04-28T12:39:31.403Z,27.58
2019-04-28T12:40:33.677Z,27.77
2019-04-28T12:41:35.929Z,28.1
2019-04-28T12:42:38.274Z,27.96
2019-04-28T12:43:40.501Z,28.03
2019-04-28T12:44:42.858Z,28.07
2019-04-28T12:45:45.024Z,28.27
2019-04-28T12:46:47.404Z,28.31
2019-04-28T12:47:49.556Z,28.31
2019-04-28T12:48:53.566Z,28.56
2019-04-28T12:49:54.154Z,29.2
2019-04-28T12:50:56.390Z,29.26
2019-04-28T12:51:58.861Z,28.71
2019-04-28T12:53:01.026Z,28.92
2019-04-28T12:54:03.243Z,28.72
2019-04-28T12:55:05.494Z,28.6
2019-04-28T12:56:08.086Z,28.61
2019-04-28T12:57:10.041Z,28.71
2019-04-28T12:58:12.390Z,28.53
2019-04-28T12:59:14.944Z,28.53
2019-04-28T13:00:16.849Z,28.49
2019-04-28T13:01:19.142Z,28.51
2019-04-28T13:03:23.651Z,28.57
2019-04-28T13:04:25.962Z,28.62
2019-04-28T13:05:28.218Z,28.55
2019-04-28T13:06:30.496Z,28.62
2019-04-28T13:07:32.759Z,28.52
2019-04-28T13:08:35.021Z,28.7
2019-04-28T13:09:37.413Z,28.82
2019-04-28T13:10:39.629Z,28.81
2019-04-28T13:11:41.908Z,29.03
2019-04-28T13:12:44.202Z,28.79
2019-04-28T13:13:46.513Z,28.85
2019-04-28T13:14:48.740Z,28.71
2019-04-28T13:15:51.194Z,28.92
2019-04-28T13:16:53.302Z,28.8
2019-04-28T13:17:55.566Z,28.87
2019-04-28T13:18:57.873Z,28.91
2019-04-28T13:20:00.142Z,28.93
2019-04-28T13:21:02.394Z,28.88
2019-04-28T13:22:04.664Z,28.8
2019-04-28T13:23:07.043Z,28.82
2019-04-28T13:24:09.193Z,28.82
2019-04-28T13:25:11.505Z,28.78
2019-04-28T13:26:13.876Z,28.75
2019-04-28T13:27:16.261Z,28.7
2019-04-28T13:28:19.635Z,28.58
2019-04-28T13:29:20.658Z,28.71
2019-04-28T13:30:22.853Z,28.53
2019-04-28T13:31:25.125Z,28.37
2019-04-28T13:32:27.380Z,28.29
2019-04-28T13:33:29.664Z,28.22
2019-04-28T13:34:32.071Z,28.26
2019-04-28T13:35:34.196Z,28.14
2019-04-28T13:36:36.504Z,28.09
2019-04-28T13:37:38.822Z,28.06